sensor_id;sensor_type;location;lat;lon;timestamp;temperature;humidity
77519;DHT22;66629;47.346;19.038;2023-05-23T00:01:35;16.28;91.62
77519;DHT22;66629;47.346;19.038;2023-05-23T00:04:02;16.25;91.58
77519;DHT22;66629;47.346;19.038;2023-05-23T00:06:28;16.25;90.99
77519;DHT22;66629;47.346;19.038;2023-05-23T00:08:53;16.26;91.09
77519;DHT22;66629;47.346;19.038;2023-05-23T00:11:19;16.31;90.80
77519;DHT22;66629;47.346;19.038;2023-05-23T00:13:48;16.35;90.20
77519;DHT22;66629;47.346;19.038;2023-05-23T00:16:15;16.36;90.46
77519;DHT22;66629;47.346;19.038;2023-05-23T00:18:41;16.38;90.62
77519;DHT22;66629;47.346;19.038;2023-05-23T00:21:07;16.39;90.81
77519;DHT22;66629;47.346;19.038;2023-05-23T00:23:34;16.29;90.19
77519;DHT22;66629;47.346;19.038;2023-05-23T00:25:59;16.20;90.88
77519;DHT22;66629;47.346;19.038;2023-05-23T00:28:25;16.21;90.97
77519;DHT22;66629;47.346;19.038;2023-05-23T00:30:51;16.15;91.69
77519;DHT22;66629;47.346;19.038;2023-05-23T00:33:16;16.18;91.72
77519;DHT22;66629;47.346;19.038;2023-05-23T00:35:46;16.15;91.57
77519;DHT22;66629;47.346;19.038;2023-05-23T00:38:11;16.04;91.59
77519;DHT22;66629;47.346;19.038;2023-05-23T00:40:38;15.90;91.97
77519;DHT22;66629;47.346;19.038;2023-05-23T00:43:04;15.89;91.95
77519;DHT22;66629;47.346;19.038;2023-05-23T00:45:30;15.91;91.80
77519;DHT22;66629;47.346;19.038;2023-05-23T00:47:55;15.82;92.77
77519;DHT22;66629;47.346;19.038;2023-05-23T00:50:23;15.85;92.41
77519;DHT22;66629;47.346;19.038;2023-05-23T00:52:50;15.80;92.28
77519;DHT22;66629;47.346;19.038;2023-05-23T00:55:15;15.74;92.27
77519;DHT22;66629;47.346;19.038;2023-05-23T00:57:41;15.77;92.10
77519;DHT22;66629;47.346;19.038;2023-05-23T01:00:12;15.76;92.01
77519;DHT22;66629;47.346;19.038;2023-05-23T01:02:45;15.69;92.53
77519;DHT22;66629;47.346;19.038;2023-05-23T01:05:15;15.83;93.00
77519;DHT22;66629;47.346;19.038;2023-05-23T01:07:45;15.76;92.12
77519;DHT22;66629;47.346;19.038;2023-05-23T01:10:12;15.76;91.91
77519;DHT22;66629;47.346;19.038;2023-05-23T01:15:24;15.70;91.97
77519;DHT22;66629;47.346;19.038;2023-05-23T01:20:37;15.58;92.13
77519;DHT22;66629;47.346;19.038;2023-05-23T01:23:08;15.63;93.22
77519;DHT22;66629;47.346;19.038;2023-05-23T01:28:28;15.46;92.45
77519;DHT22;66629;47.346;19.038;2023-05-23T01:30:57;15.31;93.63
77519;DHT22;66629;47.346;19.038;2023-05-23T01:33:24;15.23;93.42
77519;DHT22;66629;47.346;19.038;2023-05-23T01:35:50;15.16;93.90
77519;DHT22;66629;47.346;19.038;2023-05-23T01:38:16;15.27;93.94
77519;DHT22;66629;47.346;19.038;2023-05-23T01:40:42;15.32;94.03
77519;DHT22;66629;47.346;19.038;2023-05-23T01:43:07;15.38;93.49
77519;DHT22;66629;47.346;19.038;2023-05-23T01:45:33;15.45;93.41
77519;DHT22;66629;47.346;19.038;2023-05-23T01:48:00;15.42;93.19
77519;DHT22;66629;47.346;19.038;2023-05-23T01:50:27;15.35;92.80
77519;DHT22;66629;47.346;19.038;2023-05-23T01:52:53;15.34;93.38
77519;DHT22;66629;47.346;19.038;2023-05-23T01:55:21;15.26;92.56
77519;DHT22;66629;47.346;19.038;2023-05-23T01:57:50;15.03;94.34
77519;DHT22;66629;47.346;19.038;2023-05-23T02:00:16;15.07;94.45
77519;DHT22;66629;47.346;19.038;2023-05-23T02:02:42;15.20;94.22
77519;DHT22;66629;47.346;19.038;2023-05-23T02:05:09;15.30;94.01
77519;DHT22;66629;47.346;19.038;2023-05-23T02:07:35;15.23;93.63
77519;DHT22;66629;47.346;19.038;2023-05-23T02:10:02;15.17;93.93
77519;DHT22;66629;47.346;19.038;2023-05-23T02:12:27;15.13;93.25
77519;DHT22;66629;47.346;19.038;2023-05-23T02:14:53;15.10;93.83
77519;DHT22;66629;47.346;19.038;2023-05-23T02:17:19;15.20;93.94
77519;DHT22;66629;47.346;19.038;2023-05-23T02:19:46;15.07;93.25
77519;DHT22;66629;47.346;19.038;2023-05-23T02:22:12;15.04;94.36
77519;DHT22;66629;47.346;19.038;2023-05-23T02:24:37;15.00;94.08
77519;DHT22;66629;47.346;19.038;2023-05-23T02:27:03;15.00;94.00
77519;DHT22;66629;47.346;19.038;2023-05-23T02:29:29;14.94;93.96
77519;DHT22;66629;47.346;19.038;2023-05-23T02:31:54;14.97;93.96
77519;DHT22;66629;47.346;19.038;2023-05-23T02:34:19;14.99;94.55
77519;DHT22;66629;47.346;19.038;2023-05-23T02:36:45;14.97;93.78
77519;DHT22;66629;47.346;19.038;2023-05-23T02:39:10;14.96;93.71
77519;DHT22;66629;47.346;19.038;2023-05-23T02:41:36;14.96;93.51
77519;DHT22;66629;47.346;19.038;2023-05-23T02:44:02;14.90;93.59
77519;DHT22;66629;47.346;19.038;2023-05-23T02:46:27;14.83;94.40
77519;DHT22;66629;47.346;19.038;2023-05-23T02:48:53;14.89;93.83
77519;DHT22;66629;47.346;19.038;2023-05-23T02:51:18;14.83;93.84
77519;DHT22;66629;47.346;19.038;2023-05-23T02:53:43;14.83;93.96
77519;DHT22;66629;47.346;19.038;2023-05-23T02:56:09;14.87;93.64
77519;DHT22;66629;47.346;19.038;2023-05-23T02:58:34;14.79;92.94
77519;DHT22;66629;47.346;19.038;2023-05-23T03:01:03;14.78;93.91
77519;DHT22;66629;47.346;19.038;2023-05-23T03:03:29;14.85;94.01
77519;DHT22;66629;47.346;19.038;2023-05-23T03:05:56;14.86;93.38
77519;DHT22;66629;47.346;19.038;2023-05-23T03:08:22;14.79;93.12
77519;DHT22;66629;47.346;19.038;2023-05-23T03:10:48;14.87;93.91
77519;DHT22;66629;47.346;19.038;2023-05-23T03:13:13;14.82;93.45
77519;DHT22;66629;47.346;19.038;2023-05-23T03:15:39;14.85;93.23
77519;DHT22;66629;47.346;19.038;2023-05-23T03:18:04;14.79;93.62
77519;DHT22;66629;47.346;19.038;2023-05-23T03:20:30;14.85;93.89
77519;DHT22;66629;47.346;19.038;2023-05-23T03:22:55;14.94;93.65
77519;DHT22;66629;47.346;19.038;2023-05-23T03:25:21;14.97;93.22
77519;DHT22;66629;47.346;19.038;2023-05-23T03:27:46;15.00;93.42
77519;DHT22;66629;47.346;19.038;2023-05-23T03:30:11;14.92;93.09
77519;DHT22;66629;47.346;19.038;2023-05-23T03:32:37;14.87;93.12
77519;DHT22;66629;47.346;19.038;2023-05-23T03:35:02;14.86;93.94
77519;DHT22;66629;47.346;19.038;2023-05-23T03:37:28;14.86;94.18
77519;DHT22;66629;47.346;19.038;2023-05-23T03:39:53;14.97;94.34
77519;DHT22;66629;47.346;19.038;2023-05-23T03:42:19;15.02;94.17
77519;DHT22;66629;47.346;19.038;2023-05-23T03:44:44;15.07;93.91
77519;DHT22;66629;47.346;19.038;2023-05-23T03:47:10;15.10;93.46
77519;DHT22;66629;47.346;19.038;2023-05-23T03:49:35;15.17;93.51
77519;DHT22;66629;47.346;19.038;2023-05-23T03:52:00;15.21;93.31
77519;DHT22;66629;47.346;19.038;2023-05-23T03:54:26;15.04;93.38
77519;DHT22;66629;47.346;19.038;2023-05-23T03:56:51;15.07;93.62
77519;DHT22;66629;47.346;19.038;2023-05-23T03:59:17;15.13;93.80
77519;DHT22;66629;47.346;19.038;2023-05-23T04:01:43;15.21;93.83
77519;DHT22;66629;47.346;19.038;2023-05-23T04:04:08;15.28;94.02
77519;DHT22;66629;47.346;19.038;2023-05-23T04:06:33;15.37;93.89
77519;DHT22;66629;47.346;19.038;2023-05-23T04:08:59;15.45;94.03
77519;DHT22;66629;47.346;19.038;2023-05-23T04:11:25;15.52;93.26
77519;DHT22;66629;47.346;19.038;2023-05-23T04:13:50;15.52;93.74
77519;DHT22;66629;47.346;19.038;2023-05-23T04:16:16;15.62;93.43
77519;DHT22;66629;47.346;19.038;2023-05-23T04:18:41;15.49;93.67
77519;DHT22;66629;47.346;19.038;2023-05-23T04:21:07;15.52;93.48
77519;DHT22;66629;47.346;19.038;2023-05-23T04:23:33;15.65;93.24
77519;DHT22;66629;47.346;19.038;2023-05-23T04:25:58;15.74;92.96
77519;DHT22;66629;47.346;19.038;2023-05-23T04:28:25;15.85;93.01
77519;DHT22;66629;47.346;19.038;2023-05-23T04:30:52;15.97;93.06
77519;DHT22;66629;47.346;19.038;2023-05-23T04:33:17;16.10;92.35
77519;DHT22;66629;47.346;19.038;2023-05-23T04:35:43;16.20;91.81
77519;DHT22;66629;47.346;19.038;2023-05-23T04:38:08;16.22;92.13
77519;DHT22;66629;47.346;19.038;2023-05-23T04:40:34;16.29;91.62
77519;DHT22;66629;47.346;19.038;2023-05-23T04:43:00;16.24;91.62
77519;DHT22;66629;47.346;19.038;2023-05-23T04:45:25;16.20;91.22
77519;DHT22;66629;47.346;19.038;2023-05-23T04:47:51;16.01;91.84
77519;DHT22;66629;47.346;19.038;2023-05-23T04:50:19;16.03;92.19
77519;DHT22;66629;47.346;19.038;2023-05-23T04:52:46;16.04;91.57
77519;DHT22;66629;47.346;19.038;2023-05-23T04:55:11;16.18;91.33
77519;DHT22;66629;47.346;19.038;2023-05-23T04:57:37;16.49;90.59
77519;DHT22;66629;47.346;19.038;2023-05-23T05:00:04;16.62;90.06
77519;DHT22;66629;47.346;19.038;2023-05-23T05:02:35;17.00;88.73
77519;DHT22;66629;47.346;19.038;2023-05-23T05:05:01;17.29;87.55
77519;DHT22;66629;47.346;19.038;2023-05-23T05:07:27;17.32;87.05
77519;DHT22;66629;47.346;19.038;2023-05-23T05:09:53;17.54;86.10
77519;DHT22;66629;47.346;19.038;2023-05-23T05:12:19;17.23;86.70
77519;DHT22;66629;47.346;19.038;2023-05-23T05:14:44;17.12;86.79
77519;DHT22;66629;47.346;19.038;2023-05-23T05:17:10;17.16;87.30
77519;DHT22;66629;47.346;19.038;2023-05-23T05:19:35;17.26;87.41
77519;DHT22;66629;47.346;19.038;2023-05-23T05:22:01;17.73;85.66
77519;DHT22;66629;47.346;19.038;2023-05-23T05:24:26;17.98;85.11
77519;DHT22;66629;47.346;19.038;2023-05-23T05:26:53;18.17;84.06
77519;DHT22;66629;47.346;19.038;2023-05-23T05:29:18;18.40;83.34
77519;DHT22;66629;47.346;19.038;2023-05-23T05:31:44;18.95;82.59
77519;DHT22;66629;47.346;19.038;2023-05-23T05:34:10;19.34;80.88
77519;DHT22;66629;47.346;19.038;2023-05-23T05:36:35;19.34;79.53
77519;DHT22;66629;47.346;19.038;2023-05-23T05:39:01;19.68;78.62
77519;DHT22;66629;47.346;19.038;2023-05-23T05:41:26;20.07;76.87
77519;DHT22;66629;47.346;19.038;2023-05-23T05:43:52;19.93;77.52
77519;DHT22;66629;47.346;19.038;2023-05-23T05:46:17;20.00;77.13
77519;DHT22;66629;47.346;19.038;2023-05-23T05:48:43;20.25;75.83
77519;DHT22;66629;47.346;19.038;2023-05-23T05:51:08;20.33;75.91
77519;DHT22;66629;47.346;19.038;2023-05-23T05:53:34;20.48;74.27
77519;DHT22;66629;47.346;19.038;2023-05-23T05:55:59;21.08;73.68
77519;DHT22;66629;47.346;19.038;2023-05-23T05:58:25;21.11;73.51
77519;DHT22;66629;47.346;19.038;2023-05-23T06:00:50;20.93;74.46
77519;DHT22;66629;47.346;19.038;2023-05-23T06:03:15;21.12;72.94
77519;DHT22;66629;47.346;19.038;2023-05-23T06:05:41;21.46;71.06
77519;DHT22;66629;47.346;19.038;2023-05-23T06:08:07;22.28;70.16
77519;DHT22;66629;47.346;19.038;2023-05-23T06:10:32;22.48;68.59
77519;DHT22;66629;47.346;19.038;2023-05-23T06:12:58;22.50;68.84
77519;DHT22;66629;47.346;19.038;2023-05-23T06:15:24;22.73;67.84
77519;DHT22;66629;47.346;19.038;2023-05-23T06:17:51;22.94;67.80
77519;DHT22;66629;47.346;19.038;2023-05-23T06:20:16;23.02;66.44
77519;DHT22;66629;47.346;19.038;2023-05-23T06:22:41;23.39;65.07
77519;DHT22;66629;47.346;19.038;2023-05-23T06:25:07;23.70;65.47
77519;DHT22;66629;47.346;19.038;2023-05-23T06:27:33;23.91;64.63
77519;DHT22;66629;47.346;19.038;2023-05-23T06:29:58;23.22;66.26
77519;DHT22;66629;47.346;19.038;2023-05-23T06:32:23;23.67;65.99
77519;DHT22;66629;47.346;19.038;2023-05-23T06:34:49;23.52;65.63
77519;DHT22;66629;47.346;19.038;2023-05-23T06:37:14;23.41;65.35
77519;DHT22;66629;47.346;19.038;2023-05-23T06:39:40;23.41;65.61
77519;DHT22;66629;47.346;19.038;2023-05-23T06:42:06;23.52;65.18
77519;DHT22;66629;47.346;19.038;2023-05-23T06:44:31;24.06;64.54
77519;DHT22;66629;47.346;19.038;2023-05-23T06:46:57;24.00;64.45
77519;DHT22;66629;47.346;19.038;2023-05-23T06:49:23;24.65;62.36
77519;DHT22;66629;47.346;19.038;2023-05-23T06:51:49;25.19;61.54
77519;DHT22;66629;47.346;19.038;2023-05-23T06:54:15;24.71;60.95
77519;DHT22;66629;47.346;19.038;2023-05-23T06:56:40;24.26;62.24
77519;DHT22;66629;47.346;19.038;2023-05-23T06:59:05;24.56;63.26
77519;DHT22;66629;47.346;19.038;2023-05-23T07:01:31;25.01;60.63
77519;DHT22;66629;47.346;19.038;2023-05-23T07:03:56;24.84;60.82
77519;DHT22;66629;47.346;19.038;2023-05-23T07:06:22;25.10;60.46
77519;DHT22;66629;47.346;19.038;2023-05-23T07:08:47;24.89;59.88
77519;DHT22;66629;47.346;19.038;2023-05-23T07:11:13;25.36;58.14
77519;DHT22;66629;47.346;19.038;2023-05-23T07:13:38;25.31;57.27
77519;DHT22;66629;47.346;19.038;2023-05-23T07:16:04;25.99;58.08
77519;DHT22;66629;47.346;19.038;2023-05-23T07:18:29;25.93;57.95
77519;DHT22;66629;47.346;19.038;2023-05-23T07:20:55;25.48;58.50
77519;DHT22;66629;47.346;19.038;2023-05-23T07:23:22;25.92;58.42
77519;DHT22;66629;47.346;19.038;2023-05-23T07:25:51;26.04;58.21
77519;DHT22;66629;47.346;19.038;2023-05-23T07:28:16;26.06;57.54
77519;DHT22;66629;47.346;19.038;2023-05-23T07:30:42;25.96;59.69
77519;DHT22;66629;47.346;19.038;2023-05-23T07:33:07;26.20;58.68
77519;DHT22;66629;47.346;19.038;2023-05-23T07:35:32;26.20;59.55
77519;DHT22;66629;47.346;19.038;2023-05-23T07:37:58;26.92;57.98
77519;DHT22;66629;47.346;19.038;2023-05-23T07:40:23;26.58;57.29
77519;DHT22;66629;47.346;19.038;2023-05-23T07:42:49;26.90;54.86
77519;DHT22;66629;47.346;19.038;2023-05-23T07:45:14;26.61;54.55
77519;DHT22;66629;47.346;19.038;2023-05-23T07:47:40;27.08;58.54
77519;DHT22;66629;47.346;19.038;2023-05-23T07:50:07;26.10;59.67
77519;DHT22;66629;47.346;19.038;2023-05-23T07:52:32;26.28;61.57
77519;DHT22;66629;47.346;19.038;2023-05-23T07:54:58;26.85;56.76
77519;DHT22;66629;47.346;19.038;2023-05-23T07:57:24;26.85;56.05
77519;DHT22;66629;47.346;19.038;2023-05-23T07:59:50;27.37;55.80
77519;DHT22;66629;47.346;19.038;2023-05-23T08:02:16;27.15;56.06
77519;DHT22;66629;47.346;19.038;2023-05-23T08:04:42;27.15;54.04
77519;DHT22;66629;47.346;19.038;2023-05-23T08:07:07;27.42;54.48
77519;DHT22;66629;47.346;19.038;2023-05-23T08:09:34;28.04;54.79
77519;DHT22;66629;47.346;19.038;2023-05-23T08:12:00;28.10;53.62
77519;DHT22;66629;47.346;19.038;2023-05-23T08:14:25;28.11;57.03
77519;DHT22;66629;47.346;19.038;2023-05-23T08:16:51;28.10;53.35
77519;DHT22;66629;47.346;19.038;2023-05-23T08:19:16;27.52;55.44
77519;DHT22;66629;47.346;19.038;2023-05-23T08:21:41;27.56;54.42
77519;DHT22;66629;47.346;19.038;2023-05-23T08:24:07;27.94;53.70
77519;DHT22;66629;47.346;19.038;2023-05-23T08:26:33;28.25;55.34
77519;DHT22;66629;47.346;19.038;2023-05-23T08:29:00;28.00;53.34
77519;DHT22;66629;47.346;19.038;2023-05-23T08:31:29;27.41;54.16
77519;DHT22;66629;47.346;19.038;2023-05-23T08:33:55;28.21;53.39
77519;DHT22;66629;47.346;19.038;2023-05-23T08:36:21;28.24;52.76
77519;DHT22;66629;47.346;19.038;2023-05-23T08:38:46;27.92;53.61
77519;DHT22;66629;47.346;19.038;2023-05-23T08:41:17;28.64;54.45
77519;DHT22;66629;47.346;19.038;2023-05-23T08:43:43;28.18;52.38
77519;DHT22;66629;47.346;19.038;2023-05-23T08:46:08;28.00;52.90
77519;DHT22;66629;47.346;19.038;2023-05-23T08:48:37;28.04;53.81
77519;DHT22;66629;47.346;19.038;2023-05-23T08:51:03;27.80;54.09
77519;DHT22;66629;47.346;19.038;2023-05-23T08:53:30;27.72;55.55
77519;DHT22;66629;47.346;19.038;2023-05-23T08:55:57;28.07;54.61
77519;DHT22;66629;47.346;19.038;2023-05-23T08:58:28;28.00;55.64
77519;DHT22;66629;47.346;19.038;2023-05-23T09:00:54;28.32;55.09
77519;DHT22;66629;47.346;19.038;2023-05-23T09:03:21;27.76;55.90
77519;DHT22;66629;47.346;19.038;2023-05-23T09:05:47;27.10;57.66
77519;DHT22;66629;47.346;19.038;2023-05-23T09:08:14;27.52;57.00
77519;DHT22;66629;47.346;19.038;2023-05-23T09:10:41;28.34;56.68
77519;DHT22;66629;47.346;19.038;2023-05-23T09:13:06;28.66;54.29
77519;DHT22;66629;47.346;19.038;2023-05-23T09:15:34;28.32;52.44
77519;DHT22;66629;47.346;19.038;2023-05-23T09:17:59;28.56;51.23
77519;DHT22;66629;47.346;19.038;2023-05-23T09:20:28;28.74;49.65
77519;DHT22;66629;47.346;19.038;2023-05-23T09:22:54;29.00;49.41
77519;DHT22;66629;47.346;19.038;2023-05-23T09:25:19;28.73;49.14
77519;DHT22;66629;47.346;19.038;2023-05-23T09:27:45;29.04;49.90
77519;DHT22;66629;47.346;19.038;2023-05-23T09:30:12;29.19;49.17
77519;DHT22;66629;47.346;19.038;2023-05-23T09:32:37;29.38;50.09
77519;DHT22;66629;47.346;19.038;2023-05-23T09:35:05;29.11;48.43
77519;DHT22;66629;47.346;19.038;2023-05-23T09:37:38;29.70;52.96
77519;DHT22;66629;47.346;19.038;2023-05-23T09:40:09;29.80;50.28
77519;DHT22;66629;47.346;19.038;2023-05-23T09:42:35;29.78;46.84
77519;DHT22;66629;47.346;19.038;2023-05-23T09:45:05;29.33;48.08
77519;DHT22;66629;47.346;19.038;2023-05-23T09:47:31;30.26;49.56
77519;DHT22;66629;47.346;19.038;2023-05-23T09:49:56;30.16;48.48
77519;DHT22;66629;47.346;19.038;2023-05-23T09:52:22;30.40;45.44
77519;DHT22;66629;47.346;19.038;2023-05-23T09:54:47;30.74;46.30
77519;DHT22;66629;47.346;19.038;2023-05-23T09:57:14;30.50;47.30
77519;DHT22;66629;47.346;19.038;2023-05-23T09:59:48;30.25;47.24
77519;DHT22;66629;47.346;19.038;2023-05-23T10:02:16;30.26;46.02
77519;DHT22;66629;47.346;19.038;2023-05-23T10:04:49;30.02;46.62
77519;DHT22;66629;47.346;19.038;2023-05-23T10:07:18;29.78;47.90
77519;DHT22;66629;47.346;19.038;2023-05-23T10:09:50;30.19;48.41
77519;DHT22;66629;47.346;19.038;2023-05-23T10:15:06;30.59;46.85
77519;DHT22;66629;47.346;19.038;2023-05-23T10:17:39;29.28;49.65
77519;DHT22;66629;47.346;19.038;2023-05-23T10:20:14;28.63;50.37
77519;DHT22;66629;47.346;19.038;2023-05-23T10:22:41;28.97;50.07
77519;DHT22;66629;47.346;19.038;2023-05-23T10:25:07;28.81;49.69
77519;DHT22;66629;47.346;19.038;2023-05-23T10:27:38;28.69;50.38
77519;DHT22;66629;47.346;19.038;2023-05-23T10:30:07;28.70;48.98
77519;DHT22;66629;47.346;19.038;2023-05-23T10:32:34;28.48;51.97
77519;DHT22;66629;47.346;19.038;2023-05-23T10:38:06;28.79;52.50
77519;DHT22;66629;47.346;19.038;2023-05-23T10:45:44;28.59;50.92
77519;DHT22;66629;47.346;19.038;2023-05-23T10:48:39;28.71;51.65
77519;DHT22;66629;47.346;19.038;2023-05-23T10:51:10;29.46;51.85
77519;DHT22;66629;47.346;19.038;2023-05-23T10:53:46;29.59;50.07
77519;DHT22;66629;47.346;19.038;2023-05-23T10:56:21;29.12;50.84
77519;DHT22;66629;47.346;19.038;2023-05-23T10:58:54;28.57;49.79
77519;DHT22;66629;47.346;19.038;2023-05-23T11:01:20;29.38;47.94
77519;DHT22;66629;47.346;19.038;2023-05-23T11:09:19;29.95;46.47
77519;DHT22;66629;47.346;19.038;2023-05-23T11:12:04;29.87;48.60
77519;DHT22;66629;47.346;19.038;2023-05-23T11:17:16;30.39;43.00
77519;DHT22;66629;47.346;19.038;2023-05-23T11:19:57;30.68;43.63
77519;DHT22;66629;47.346;19.038;2023-05-23T11:22:27;30.91;41.57
77519;DHT22;66629;47.346;19.038;2023-05-23T11:24:54;31.53;42.54
77519;DHT22;66629;47.346;19.038;2023-05-23T11:27:37;31.12;42.74
77519;DHT22;66629;47.346;19.038;2023-05-23T11:32:31;30.67;45.11
77519;DHT22;66629;47.346;19.038;2023-05-23T11:35:05;29.66;45.33
77519;DHT22;66629;47.346;19.038;2023-05-23T11:37:31;29.73;47.55
77519;DHT22;66629;47.346;19.038;2023-05-23T11:39:57;30.22;47.86
77519;DHT22;66629;47.346;19.038;2023-05-23T11:42:22;30.13;46.57
77519;DHT22;66629;47.346;19.038;2023-05-23T11:44:49;30.23;46.45
77519;DHT22;66629;47.346;19.038;2023-05-23T11:47:16;30.81;47.44
77519;DHT22;66629;47.346;19.038;2023-05-23T11:49:43;30.60;46.92
77519;DHT22;66629;47.346;19.038;2023-05-23T11:52:09;29.89;46.33
77519;DHT22;66629;47.346;19.038;2023-05-23T11:54:34;29.97;48.74
77519;DHT22;66629;47.346;19.038;2023-05-23T11:57:01;30.28;47.64
77519;DHT22;66629;47.346;19.038;2023-05-23T11:59:26;30.32;47.18
77519;DHT22;66629;47.346;19.038;2023-05-23T12:01:53;30.12;46.64
77519;DHT22;66629;47.346;19.038;2023-05-23T12:04:18;29.85;46.25
77519;DHT22;66629;47.346;19.038;2023-05-23T12:06:48;29.97;45.63
77519;DHT22;66629;47.346;19.038;2023-05-23T12:09:14;29.91;45.77
77519;DHT22;66629;47.346;19.038;2023-05-23T12:11:40;29.49;45.66
77519;DHT22;66629;47.346;19.038;2023-05-23T12:14:07;29.05;47.20
77519;DHT22;66629;47.346;19.038;2023-05-23T12:16:34;28.94;46.71
77519;DHT22;66629;47.346;19.038;2023-05-23T12:19:00;29.56;47.34
77519;DHT22;66629;47.346;19.038;2023-05-23T12:21:39;29.22;48.14
77519;DHT22;66629;47.346;19.038;2023-05-23T12:24:18;28.79;46.48
77519;DHT22;66629;47.346;19.038;2023-05-23T12:26:58;29.43;48.08
77519;DHT22;66629;47.346;19.038;2023-05-23T12:29:31;29.05;45.49
77519;DHT22;66629;47.346;19.038;2023-05-23T12:31:58;29.12;45.93
77519;DHT22;66629;47.346;19.038;2023-05-23T12:34:23;29.39;45.91
77519;DHT22;66629;47.346;19.038;2023-05-23T12:36:49;29.84;46.12
77519;DHT22;66629;47.346;19.038;2023-05-23T12:39:23;29.81;45.48
77519;DHT22;66629;47.346;19.038;2023-05-23T12:41:49;30.06;45.45
77519;DHT22;66629;47.346;19.038;2023-05-23T12:44:14;29.97;44.75
77519;DHT22;66629;47.346;19.038;2023-05-23T12:46:41;30.25;44.69
77519;DHT22;66629;47.346;19.038;2023-05-23T12:49:06;30.25;45.24
77519;DHT22;66629;47.346;19.038;2023-05-23T12:51:32;30.29;43.82
77519;DHT22;66629;47.346;19.038;2023-05-23T12:53:57;29.80;44.65
77519;DHT22;66629;47.346;19.038;2023-05-23T12:56:23;29.63;44.57
77519;DHT22;66629;47.346;19.038;2023-05-23T12:58:48;29.76;46.16
77519;DHT22;66629;47.346;19.038;2023-05-23T13:01:14;30.00;45.74
77519;DHT22;66629;47.346;19.038;2023-05-23T13:03:39;29.82;43.38
77519;DHT22;66629;47.346;19.038;2023-05-23T13:06:05;30.00;45.04
77519;DHT22;66629;47.346;19.038;2023-05-23T13:08:31;30.11;43.77
77519;DHT22;66629;47.346;19.038;2023-05-23T13:10:56;30.21;44.85
77519;DHT22;66629;47.346;19.038;2023-05-23T13:13:22;30.32;44.08
77519;DHT22;66629;47.346;19.038;2023-05-23T13:15:47;30.39;44.56
77519;DHT22;66629;47.346;19.038;2023-05-23T13:18:13;30.53;43.99
77519;DHT22;66629;47.346;19.038;2023-05-23T13:20:38;30.59;43.38
77519;DHT22;66629;47.346;19.038;2023-05-23T13:23:05;30.81;44.72
77519;DHT22;66629;47.346;19.038;2023-05-23T13:25:30;30.85;44.80
77519;DHT22;66629;47.346;19.038;2023-05-23T13:27:56;31.02;44.90
77519;DHT22;66629;47.346;19.038;2023-05-23T13:30:22;31.21;43.91
77519;DHT22;66629;47.346;19.038;2023-05-23T13:32:48;31.06;43.39
77519;DHT22;66629;47.346;19.038;2023-05-23T13:35:14;30.98;43.82
77519;DHT22;66629;47.346;19.038;2023-05-23T13:37:39;30.92;42.89
77519;DHT22;66629;47.346;19.038;2023-05-23T13:40:06;31.11;42.24
77519;DHT22;66629;47.346;19.038;2023-05-23T13:42:32;30.61;42.99
77519;DHT22;66629;47.346;19.038;2023-05-23T13:44:57;30.88;41.99
77519;DHT22;66629;47.346;19.038;2023-05-23T13:47:22;30.11;42.83
77519;DHT22;66629;47.346;19.038;2023-05-23T13:49:48;30.02;43.11
77519;DHT22;66629;47.346;19.038;2023-05-23T13:52:14;29.98;43.73
77519;DHT22;66629;47.346;19.038;2023-05-23T13:54:39;30.43;44.36
77519;DHT22;66629;47.346;19.038;2023-05-23T13:57:05;30.13;41.60
77519;DHT22;66629;47.346;19.038;2023-05-23T13:59:32;30.23;42.45
77519;DHT22;66629;47.346;19.038;2023-05-23T14:01:57;30.29;43.63
77519;DHT22;66629;47.346;19.038;2023-05-23T14:04:23;30.13;42.96
77519;DHT22;66629;47.346;19.038;2023-05-23T14:06:48;30.04;43.49
77519;DHT22;66629;47.346;19.038;2023-05-23T14:09:14;30.30;43.05
77519;DHT22;66629;47.346;19.038;2023-05-23T14:11:39;29.98;44.51
77519;DHT22;66629;47.346;19.038;2023-05-23T14:14:05;29.78;43.68
77519;DHT22;66629;47.346;19.038;2023-05-23T14:16:30;29.62;43.66
77519;DHT22;66629;47.346;19.038;2023-05-23T14:18:56;29.12;44.67
77519;DHT22;66629;47.346;19.038;2023-05-23T14:21:21;29.16;46.31
77519;DHT22;66629;47.346;19.038;2023-05-23T14:23:47;29.54;45.59
77519;DHT22;66629;47.346;19.038;2023-05-23T14:26:12;29.32;43.65
77519;DHT22;66629;47.346;19.038;2023-05-23T14:28:38;29.39;43.76
77519;DHT22;66629;47.346;19.038;2023-05-23T14:31:04;29.23;43.16
77519;DHT22;66629;47.346;19.038;2023-05-23T14:33:29;29.04;43.82
77519;DHT22;66629;47.346;19.038;2023-05-23T14:35:55;29.15;44.36
77519;DHT22;66629;47.346;19.038;2023-05-23T14:38:20;28.93;44.95
77519;DHT22;66629;47.346;19.038;2023-05-23T14:40:46;28.77;44.95
77519;DHT22;66629;47.346;19.038;2023-05-23T14:43:13;29.04;44.67
77519;DHT22;66629;47.346;19.038;2023-05-23T14:45:38;29.22;44.37
77519;DHT22;66629;47.346;19.038;2023-05-23T14:48:04;29.14;44.01
77519;DHT22;66629;47.346;19.038;2023-05-23T14:50:30;29.15;43.85
77519;DHT22;66629;47.346;19.038;2023-05-23T14:52:55;28.83;42.86
77519;DHT22;66629;47.346;19.038;2023-05-23T14:55:21;28.80;43.82
77519;DHT22;66629;47.346;19.038;2023-05-23T14:57:46;28.86;44.08
77519;DHT22;66629;47.346;19.038;2023-05-23T15:00:12;28.94;43.68
77519;DHT22;66629;47.346;19.038;2023-05-23T15:02:38;29.00;43.13
77519;DHT22;66629;47.346;19.038;2023-05-23T15:05:04;28.91;43.00
77519;DHT22;66629;47.346;19.038;2023-05-23T15:07:29;29.08;43.52
77519;DHT22;66629;47.346;19.038;2023-05-23T15:09:55;29.15;43.21
77519;DHT22;66629;47.346;19.038;2023-05-23T15:12:21;29.21;43.71
77519;DHT22;66629;47.346;19.038;2023-05-23T15:14:47;29.12;44.96
77519;DHT22;66629;47.346;19.038;2023-05-23T15:17:13;29.00;44.45
77519;DHT22;66629;47.346;19.038;2023-05-23T15:19:44;28.95;44.60
77519;DHT22;66629;47.346;19.038;2023-05-23T15:22:10;29.10;43.72
77519;DHT22;66629;47.346;19.038;2023-05-23T15:24:36;28.91;43.93
77519;DHT22;66629;47.346;19.038;2023-05-23T15:27:01;28.74;43.52
77519;DHT22;66629;47.346;19.038;2023-05-23T15:29:26;28.56;43.36
77519;DHT22;66629;47.346;19.038;2023-05-23T15:31:52;28.63;45.06
77519;DHT22;66629;47.346;19.038;2023-05-23T15:34:18;28.52;44.80
77519;DHT22;66629;47.346;19.038;2023-05-23T15:36:43;28.55;45.42
77519;DHT22;66629;47.346;19.038;2023-05-23T15:39:10;28.38;45.77
77519;DHT22;66629;47.346;19.038;2023-05-23T15:41:37;28.28;44.92